Time;durP1;ratioP1;P1;durP2;ratioP2;P2;SDS_P1;SDS_P2;PMS_P1;PMS_P2;Temp;Humidity;BMP_temperature;BMP_pressure;BME280_temperature;BME280_humidity;BME280_pressure;Samples;Min_cycle;Max_cycle;Signal;HPM_P1;HPM_P2
2021/03/10 00:01:05;;;;;;;;;;;1.50;99.90;;;;;;4965595;28;19913;-87
2021/03/10 00:03:40;;;;;;;;;;;1.40;99.90;;;;;;5016334;28;19916;-89
2021/03/10 00:06:11;;;;;;;;;;;1.40;99.90;;;;;;5011201;28;19970;-88
2021/03/10 00:08:39;;;;;;;;;;;1.30;99.90;;;;;;5009733;28;20346;-88
2021/03/10 00:11:08;;;;;;;;;;;1.20;99.90;;;;;;5013529;28;19917;-88
2021/03/10 00:13:47;;;;;;;;;;;1.20;99.90;;;;;;5011568;28;19921;-89
2021/03/10 00:16:16;;;;;;;;;;;1.20;99.90;;;;;;5010991;28;20422;-88
2021/03/10 00:18:52;;;;;;;;;;;1.10;99.90;;;;;;4997807;28;19937;-89
2021/03/10 00:21:31;;;;;;;;;;;1.00;99.90;;;;;;4997746;28;19917;-89
2021/03/10 00:24:01;;;;;;;;;;;1.00;99.90;;;;;;4997426;28;19910;-88
2021/03/10 00:26:36;;;;;;;;;;;0.90;99.90;;;;;;4998053;28;19913;-88
2021/03/10 00:29:14;;;;;;;;;;;0.90;99.90;;;;;;5013624;28;19910;-88
2021/03/10 00:31:41;;;;;;;;;;;0.90;99.90;;;;;;5041336;28;19999;-89
2021/03/10 00:34:10;;;;;;;;;;;1.00;99.90;;;;;;5072094;28;19988;-87
2021/03/10 00:36:39;;;;;;;;;;;1.10;99.90;;;;;;5095648;28;19989;-88
2021/03/10 00:39:10;;;;;;;;;;;1.30;99.90;;;;;;5077208;28;19916;-88
2021/03/10 00:41:44;;;;;;;;;;;1.50;99.90;;;;;;5029888;28;19959;-88
2021/03/10 00:44:21;;;;;;;;;;;1.60;99.90;;;;;;5032677;28;19909;-88
2021/03/10 00:46:47;;;;;;;;;;;1.80;99.90;;;;;;5033634;28;19913;-88
2021/03/10 00:49:19;;;;;;;;;;;1.90;99.90;;;;;;5034004;28;19909;-88
2021/03/10 00:51:47;;;;;;;;;;;2.00;99.90;;;;;;5037296;28;20380;-87
2021/03/10 00:54:26;;;;;;;;;;;2.10;99.90;;;;;;5032360;28;19909;-88
2021/03/10 00:56:59;;;;;;;;;;;2.10;99.90;;;;;;5024949;28;19909;-87
2021/03/10 00:59:27;;;;;;;;;;;2.10;99.90;;;;;;5023140;28;19917;-88
2021/03/10 01:02:03;;;;;;;;;;;2.00;99.90;;;;;;5033899;28;20321;-87
2021/03/10 01:04:48;;;;;;;;;;;1.90;99.90;;;;;;5031299;28;19909;-89
2021/03/10 01:07:20;;;;;;;;;;;1.80;99.90;;;;;;5036990;28;20070;-88
2021/03/10 01:09:49;;;;;;;;;;;1.70;99.90;;;;;;5038251;28;19909;-87
2021/03/10 01:12:21;;;;;;;;;;;1.50;99.90;;;;;;5039501;28;19955;-88
2021/03/10 01:14:47;;;;;;;;;;;1.50;99.90;;;;;;5057084;28;20397;-88
2021/03/10 01:17:19;;;;;;;;;;;1.40;99.90;;;;;;5056766;28;19909;-89
2021/03/10 01:20:07;;;;;;;;;;;1.30;99.90;;;;;;5049873;28;19924;-87
2021/03/10 01:22:36;;;;;;;;;;;1.30;99.90;;;;;;5036905;28;20405;-88
2021/03/10 01:25:04;;;;;;;;;;;1.30;99.90;;;;;;5019752;28;19910;-88
2021/03/10 01:27:44;;;;;;;;;;;1.20;99.90;;;;;;5018242;28;19964;-87
2021/03/10 01:30:17;;;;;;;;;;;1.20;99.90;;;;;;5020373;28;19909;-89
2021/03/10 01:32:44;;;;;;;;;;;1.20;99.90;;;;;;5020511;28;19913;-88
2021/03/10 01:35:16;;;;;;;;;;;1.20;99.90;;;;;;5031119;28;20395;-88
2021/03/10 01:38:05;;;;;;;;;;;1.10;99.90;;;;;;5078713;28;19916;-88
2021/03/10 01:40:33;;;;;;;;;;;1.10;99.90;;;;;;5097840;28;19915;-88
2021/03/10 01:43:05;;;;;;;;;;;1.00;99.90;;;;;;5078627;28;20007;-88
2021/03/10 01:45:43;;;;;;;;;;;1.00;99.90;;;;;;5078612;28;19915;-88
2021/03/10 01:48:12;;;;;;;;;;;0.90;99.90;;;;;;5019385;28;19955;-88
2021/03/10 01:50:39;;;;;;;;;;;0.90;99.90;;;;;;5018238;28;20400;-87
2021/03/10 01:53:12;;;;;;;;;;;0.80;99.90;;;;;;5011907;28;19920;-88
2021/03/10 01:55:44;;;;;;;;;;;0.80;99.90;;;;;;5019273;28;20366;-88
2021/03/10 01:58:12;;;;;;;;;;;0.80;99.90;;;;;;5033233;28;19917;-89
2021/03/10 02:00:43;;;;;;;;;;;0.80;99.90;;;;;;5018611;28;19917;-89
2021/03/10 02:03:13;;;;;;;;;;;0.70;99.90;;;;;;5019105;28;19909;-87
2021/03/10 02:06:05;;;;;;;;;;;0.70;99.90;;;;;;5034287;28;19925;-88
2021/03/10 02:08:41;;;;;;;;;;;0.70;99.90;;;;;;4976755;28;19953;-87
2021/03/10 02:11:35;;;;;;;;;;;0.80;99.90;;;;;;4976852;28;19952;-89
2021/03/10 02:14:46;;;;;;;;;;;0.70;99.90;;;;;;4975963;28;19910;-88
2021/03/10 02:17:18;;;;;;;;;;;0.70;99.90;;;;;;4976432;28;20264;-87
2021/03/10 02:19:59;;;;;;;;;;;0.60;99.90;;;;;;5004915;28;19918;-87
2021/03/10 02:22:46;;;;;;;;;;;0.60;99.90;;;;;;5035643;28;19920;-88
2021/03/10 02:25:31;;;;;;;;;;;0.60;99.90;;;;;;5018773;28;19909;-88
2021/03/10 02:28:01;;;;;;;;;;;0.60;99.90;;;;;;5018305;28;19916;-88
2021/03/10 02:30:33;;;;;;;;;;;0.60;99.90;;;;;;5033184;28;19909;-89
2021/03/10 02:33:29;;;;;;;;;;;0.60;99.90;;;;;;5034249;28;19909;-88
2021/03/10 02:36:13;;;;;;;;;;;0.50;99.90;;;;;;4994984;28;19914;-89
2021/03/10 02:38:47;;;;;;;;;;;0.50;99.90;;;;;;4984190;28;19940;-87
2021/03/10 02:41:16;;;;;;;;;;;0.50;99.90;;;;;;5034304;28;19936;-88
2021/03/10 02:43:47;;;;;;;;;;;0.50;99.90;;;;;;5034795;28;20363;-89
2021/03/10 02:46:33;;;;;;;;;;;0.50;99.90;;;;;;5034218;28;19916;-88
2021/03/10 02:49:10;;;;;;;;;;;0.50;99.90;;;;;;5020591;28;20048;-88
2021/03/10 02:51:39;;;;;;;;;;;0.50;99.90;;;;;;5036752;28;19917;-88
2021/03/10 02:54:05;;;;;;;;;;;0.50;99.90;;;;;;5036798;28;19948;-89
2021/03/10 02:56:40;;;;;;;;;;;0.60;99.90;;;;;;5036156;28;19913;-87
2021/03/10 02:59:17;;;;;;;;;;;0.70;99.90;;;;;;5035252;28;19920;-88
2021/03/10 03:01:48;;;;;;;;;;;0.80;99.90;;;;;;5036637;28;20392;-88
2021/03/10 03:04:36;;;;;;;;;;;0.90;99.90;;;;;;5037266;28;19952;-88
2021/03/10 03:07:08;;;;;;;;;;;0.90;99.90;;;;;;5063454;28;19942;-87
2021/03/10 03:09:47;;;;;;;;;;;1.00;99.90;;;;;;5099458;28;19908;-87
2021/03/10 03:12:20;;;;;;;;;;;1.10;99.90;;;;;;5083130;28;19918;-88
2021/03/10 03:14:50;;;;;;;;;;;1.20;99.90;;;;;;5038318;28;19917;-89
2021/03/10 03:17:19;;;;;;;;;;;1.30;99.90;;;;;;5021187;28;20044;-87
2021/03/10 03:19:48;;;;;;;;;;;1.30;99.90;;;;;;5020273;28;19944;-88
2021/03/10 03:22:21;;;;;;;;;;;1.40;99.90;;;;;;5017346;28;19916;-88
2021/03/10 03:24:51;;;;;;;;;;;1.50;99.90;;;;;;5017150;28;19910;-89
2021/03/10 03:27:26;;;;;;;;;;;1.50;99.90;;;;;;5018027;28;20274;-88
2021/03/10 03:30:04;;;;;;;;;;;1.60;99.90;;;;;;5018678;28;20007;-89
2021/03/10 03:32:44;;;;;;;;;;;;;;;;;;;;;
2021/03/10 03:35:18;;;;;;;;;;;1.70;99.90;;;;;;5034379;28;19915;-88
2021/03/10 03:37:54;;;;;;;;;;;1.70;99.90;;;;;;5017248;28;19910;-88
2021/03/10 03:40:23;;;;;;;;;;;1.80;99.90;;;;;;5059084;28;19935;-89
2021/03/10 03:42:53;;;;;;;;;;;1.80;99.90;;;;;;5078065;28;19908;-88
2021/03/10 03:45:19;;;;;;;;;;;1.80;99.90;;;;;;5078198;28;19909;-89
2021/03/10 03:47:55;;;;;;;;;;;1.90;99.90;;;;;;5093848;28;20379;-89
2021/03/10 03:50:33;;;;;;;;;;;2.00;99.90;;;;;;5076308;28;19912;-88
2021/03/10 03:53:04;;;;;;;;;;;2.10;99.90;;;;;;5077031;28;19915;-88
2021/03/10 03:55:41;;;;;;;;;;;2.10;99.90;;;;;;5077796;28;19912;-88
2021/03/10 03:58:15;;;;;;;;;;;2.20;99.90;;;;;;5078025;28;20367;-88
2021/03/10 04:00:47;;;;;;;;;;;2.20;99.90;;;;;;5076308;28;20003;-90
2021/03/10 04:03:32;;;;;;;;;;;2.20;99.90;;;;;;5093432;28;19912;-88
2021/03/10 04:06:01;;;;;;;;;;;2.30;99.90;;;;;;5073772;28;19921;-88
2021/03/10 04:08:27;;;;;;;;;;;2.40;99.90;;;;;;5074182;28;19912;-88
2021/03/10 04:11:01;;;;;;;;;;;2.40;99.90;;;;;;5074691;28;20293;-88
2021/03/10 04:13:39;;;;;;;;;;;2.50;99.90;;;;;;5026123;28;19920;-89
2021/03/10 04:16:16;;;;;;;;;;;2.50;99.90;;;;;;5028677;28;19909;-88
2021/03/10 04:18:48;;;;;;;;;;;2.50;99.90;;;;;;5036906;28;19936;-89
2021/03/10 04:21:16;;;;;;;;;;;2.60;99.90;;;;;;5034570;28;20015;-88
2021/03/10 04:23:50;;;;;;;;;;;2.60;99.90;;;;;;5037330;28;19909;-89
2021/03/10 04:26:20;;;;;;;;;;;2.70;99.90;;;;;;5033739;28;19913;-88
2021/03/10 04:28:54;;;;;;;;;;;2.70;99.90;;;;;;5037165;28;19913;-87
2021/03/10 04:31:23;;;;;;;;;;;2.70;99.90;;;;;;5034716;28;20011;-88
2021/03/10 04:33:52;;;;;;;;;;;2.70;99.90;;;;;;5032329;28;19967;-88
2021/03/10 04:36:23;;;;;;;;;;;2.70;99.90;;;;;;5035944;28;19916;-90
2021/03/10 04:38:52;;;;;;;;;;;2.80;99.90;;;;;;5069188;28;19920;-90
2021/03/10 04:41:22;;;;;;;;;;;2.80;99.90;;;;;;5093848;28;19916;-89
2021/03/10 04:43:56;;;;;;;;;;;2.80;99.90;;;;;;5059340;28;19908;-88
2021/03/10 04:46:36;;;;;;;;;;;2.80;99.90;;;;;;5017906;28;19909;-88
2021/03/10 04:49:02;;;;;;;;;;;2.80;99.90;;;;;;5001098;28;20433;-90
2021/03/10 04:51:33;;;;;;;;;;;2.80;99.90;;;;;;4996657;28;19914;-88
2021/03/10 04:54:00;;;;;;;;;;;2.80;99.90;;;;;;4939903;29;19919;-87
2021/03/10 04:56:30;;;;;;;;;;;2.80;99.90;;;;;;4937453;29;19911;-89
2021/03/10 04:58:58;;;;;;;;;;;2.80;99.90;;;;;;4935386;29;19922;-89
2021/03/10 05:01:31;;;;;;;;;;;2.90;99.90;;;;;;4935055;29;19926;-88
2021/03/10 05:04:01;;;;;;;;;;;2.90;99.90;;;;;;4942403;29;19911;-88
2021/03/10 05:06:32;;;;;;;;;;;2.90;99.90;;;;;;4957640;29;19922;-88
2021/03/10 05:09:01;;;;;;;;;;;3.00;99.90;;;;;;4941628;28;20394;-88
2021/03/10 05:11:40;;;;;;;;;;;3.00;99.90;;;;;;4998125;28;19909;-87
2021/03/10 05:14:12;;;;;;;;;;;3.00;99.90;;;;;;4999536;28;19910;-88
2021/03/10 05:16:48;;;;;;;;;;;3.00;99.90;;;;;;5000047;28;19913;-88
2021/03/10 05:19:22;;;;;;;;;;;3.00;99.90;;;;;;4999873;28;19960;-88
2021/03/10 05:21:53;;;;;;;;;;;3.10;99.90;;;;;;4999935;28;19918;-88
2021/03/10 05:24:22;;;;;;;;;;;3.10;99.90;;;;;;5014696;28;19949;-88
2021/03/10 05:26:53;;;;;;;;;;;3.10;99.90;;;;;;4975450;28;19934;-88
2021/03/10 05:29:24;;;;;;;;;;;3.10;99.90;;;;;;4974910;28;20005;-88
2021/03/10 05:31:53;;;;;;;;;;;3.10;99.90;;;;;;4960935;28;19961;-88
2021/03/10 05:34:24;;;;;;;;;;;3.00;99.90;;;;;;4973350;28;19921;-88
2021/03/10 05:36:58;;;;;;;;;;;2.90;99.90;;;;;;4973400;28;19910;-88
2021/03/10 05:39:26;;;;;;;;;;;2.90;99.90;;;;;;4977334;28;19910;-88
2021/03/10 05:42:01;;;;;;;;;;;2.90;99.90;;;;;;4974375;28;20004;-88
2021/03/10 05:44:32;;;;;;;;;;;3.00;99.90;;;;;;4999648;28;19909;-88
2021/03/10 05:47:04;;;;;;;;;;;3.00;99.90;;;;;;5035468;28;19909;-89
2021/03/10 05:49:40;;;;;;;;;;;3.00;99.90;;;;;;5034638;28;19955;-89
2021/03/10 05:52:08;;;;;;;;;;;3.00;99.90;;;;;;5035538;28;19920;-89
2021/03/10 05:54:51;;;;;;;;;;;3.00;99.90;;;;;;4964511;28;19910;-87
2021/03/10 05:57:20;;;;;;;;;;;3.00;99.90;;;;;;4968660;28;19988;-88
2021/03/10 05:59:45;;;;;;;;;;;3.00;99.90;;;;;;5012966;28;19917;-89
2021/03/10 06:02:22;;;;;;;;;;;3.10;99.90;;;;;;5015553;28;20457;-88
2021/03/10 06:04:53;;;;;;;;;;;3.20;99.90;;;;;;4999239;28;19913;-87
2021/03/10 06:07:22;;;;;;;;;;;3.20;99.90;;;;;;5013690;28;20000;-88
2021/03/10 06:09:55;;;;;;;;;;;3.20;99.90;;;;;;5009514;28;19911;-86
2021/03/10 06:12:29;;;;;;;;;;;3.30;99.90;;;;;;4994787;28;19910;-89
2021/03/10 06:15:04;;;;;;;;;;;3.30;99.90;;;;;;4977552;28;20387;-87
2021/03/10 06:17:41;;;;;;;;;;;3.30;99.90;;;;;;4979983;28;19919;-88
2021/03/10 06:20:07;;;;;;;;;;;3.30;99.90;;;;;;4959346;28;20426;-87
2021/03/10 06:22:49;;;;;;;;;;;3.30;99.90;;;;;;4974742;28;20347;-88
2021/03/10 06:25:23;;;;;;;;;;;3.30;99.90;;;;;;5010584;28;20340;-88
2021/03/10 06:27:55;;;;;;;;;;;3.40;99.90;;;;;;5083693;28;19916;-88
2021/03/10 06:30:32;;;;;;;;;;;3.40;99.90;;;;;;5092452;28;19966;-88
2021/03/10 06:33:02;;;;;;;;;;;3.30;99.90;;;;;;5092302;28;20354;-87
2021/03/10 06:35:31;;;;;;;;;;;3.40;99.90;;;;;;5094781;28;19908;-88
2021/03/10 06:38:30;;;;;;;;;;;3.40;99.90;;;;;;5094816;28;20362;-87
2021/03/10 06:41:01;;;;;;;;;;;3.40;99.90;;;;;;5073313;28;19920;-88
2021/03/10 06:43:53;;;;;;;;;;;3.50;99.90;;;;;;5096503;28;20315;-88
2021/03/10 06:46:25;;;;;;;;;;;3.50;99.90;;;;;;5094492;28;19956;-85
2021/03/10 06:49:03;;;;;;;;;;;3.50;99.90;;;;;;5116025;28;19915;-85
2021/03/10 06:51:32;;;;;;;;;;;3.60;99.90;;;;;;5115446;28;19931;-86
2021/03/10 06:54:03;;;;;;;;;;;3.70;99.90;;;;;;5114939;28;19960;-85
2021/03/10 06:56:33;;;;;;;;;;;3.70;99.90;;;;;;5114929;28;19907;-85
2021/03/10 06:59:08;;;;;;;;;;;3.70;99.90;;;;;;5112571;28;20029;-85
2021/03/10 07:02:01;;;;;;;;;;;3.80;99.90;;;;;;5116622;28;20006;-86
2021/03/10 07:04:41;;;;;;;;;;;3.80;99.90;;;;;;5098000;28;20275;-86
2021/03/10 07:07:07;;;;;;;;;;;3.90;99.90;;;;;;5112194;28;19927;-86
2021/03/10 07:09:38;;;;;;;;;;;3.90;99.90;;;;;;5111280;28;20356;-86
2021/03/10 07:12:08;;;;;;;;;;;3.90;99.90;;;;;;5110798;28;19915;-86
2021/03/10 07:14:42;;;;;;;;;;;4.00;99.90;;;;;;5112555;28;20302;-86
2021/03/10 07:17:16;;;;;;;;;;;4.00;99.90;;;;;;5111113;28;19908;-86
2021/03/10 07:19:49;;;;;;;;;;;4.00;99.90;;;;;;5097279;28;19912;-86
2021/03/10 07:22:37;;;;;;;;;;;4.10;99.90;;;;;;5092645;28;19916;-87
2021/03/10 07:25:09;;;;;;;;;;;4.10;99.90;;;;;;5093252;28;19943;-86
2021/03/10 07:27:43;;;;;;;;;;;4.20;99.90;;;;;;5073390;28;20371;-86
2021/03/10 07:30:17;;;;;;;;;;;4.30;99.90;;;;;;5092773;28;19908;-87
2021/03/10 07:32:48;;;;;;;;;;;4.30;99.90;;;;;;5076792;28;19922;-86
2021/03/10 07:35:13;;;;;;;;;;;4.40;99.90;;;;;;5075690;28;19943;-86
2021/03/10 07:37:55;;;;;;;;;;;4.40;99.90;;;;;;5075886;28;19951;-86
2021/03/10 07:40:26;;;;;;;;;;;4.50;99.90;;;;;;5092855;28;20007;-86
2021/03/10 07:42:58;;;;;;;;;;;4.50;99.90;;;;;;5074254;28;19912;-86
2021/03/10 07:45:51;;;;;;;;;;;4.60;99.90;;;;;;5092416;28;19912;-85
2021/03/10 07:48:19;;;;;;;;;;;4.70;99.90;;;;;;5092980;28;19931;-86
2021/03/10 07:50:49;;;;;;;;;;;4.80;99.90;;;;;;5093856;28;19968;-86
2021/03/10 07:53:17;;;;;;;;;;;4.80;99.90;;;;;;5092956;28;20170;-87
2021/03/10 07:55:46;;;;;;;;;;;5.00;99.90;;;;;;5074539;28;19908;-87
2021/03/10 07:58:34;;;;;;;;;;;5.00;99.90;;;;;;5092856;28;19908;-86
2021/03/10 08:01:16;;;;;;;;;;;5.10;99.90;;;;;;5092594;28;19923;-86
2021/03/10 08:03:44;;;;;;;;;;;5.10;99.90;;;;;;5075828;28;20015;-86
2021/03/10 08:06:15;;;;;;;;;;;5.20;99.90;;;;;;5089581;28;19926;-86
2021/03/10 08:08:51;;;;;;;;;;;5.30;99.90;;;;;;5075863;28;19916;-86
2021/03/10 08:11:42;;;;;;;;;;;5.40;99.90;;;;;;5097136;28;19912;-85
2021/03/10 08:14:33;;;;;;;;;;;5.50;99.90;;;;;;5113486;28;19969;-85
2021/03/10 08:16:59;;;;;;;;;;;5.50;99.90;;;;;;5089418;28;19912;-86
2021/03/10 08:19:30;;;;;;;;;;;5.60;99.90;;;;;;5070049;28;19931;-86
2021/03/10 08:22:15;;;;;;;;;;;5.70;99.90;;;;;;5071014;28;19913;-87
2021/03/10 08:24:43;;;;;;;;;;;5.70;99.90;;;;;;5055291;28;19909;-87
2021/03/10 08:27:09;;;;;;;;;;;5.80;99.90;;;;;;5072306;28;19999;-87
2021/03/10 08:29:35;;;;;;;;;;;5.90;99.90;;;;;;5055754;28;19963;-88
2021/03/10 08:32:07;;;;;;;;;;;6.00;99.90;;;;;;5012683;28;19910;-85
2021/03/10 08:34:32;;;;;;;;;;;6.00;99.90;;;;;;5013017;28;20012;-87
2021/03/10 08:36:58;;;;;;;;;;;6.10;99.90;;;;;;5013262;28;19996;-86
2021/03/10 08:39:27;;;;;;;;;;;6.10;99.90;;;;;;5012073;28;19925;-86
2021/03/10 08:41:56;;;;;;;;;;;6.10;99.90;;;;;;5012157;28;19909;-86
2021/03/10 08:44:25;;;;;;;;;;;6.20;99.90;;;;;;5012586;28;20501;-85
2021/03/10 08:46:55;;;;;;;;;;;6.20;99.90;;;;;;5011467;28;19909;-86
2021/03/10 08:49:25;;;;;;;;;;;6.30;99.90;;;;;;4993046;28;19917;-86
2021/03/10 08:52:03;;;;;;;;;;;6.30;99.90;;;;;;4992570;28;19910;-86
2021/03/10 08:54:43;;;;;;;;;;;6.40;99.90;;;;;;4992846;28;19910;-86
2021/03/10 08:57:12;;;;;;;;;;;6.40;99.90;;;;;;5017399;28;20468;-86
2021/03/10 08:59:47;;;;;;;;;;;6.50;99.90;;;;;;5032386;28;20100;-86
2021/03/10 09:02:32;;;;;;;;;;;6.50;99.90;;;;;;5040507;28;19919;-87
2021/03/10 09:05:08;;;;;;;;;;;6.60;99.90;;;;;;5074467;28;20429;-86
2021/03/10 09:07:45;;;;;;;;;;;6.60;99.90;;;;;;5075968;28;20012;-86
2021/03/10 09:10:13;;;;;;;;;;;6.70;99.90;;;;;;5075491;28;20419;-87
2021/03/10 09:12:43;;;;;;;;;;;6.80;99.90;;;;;;5075425;28;19951;-86
2021/03/10 09:15:13;;;;;;;;;;;6.90;99.90;;;;;;5075779;28;20301;-86
2021/03/10 09:17:48;;;;;;;;;;;6.90;99.90;;;;;;5058639;28;19915;-87
2021/03/10 09:20:24;;;;;;;;;;;7.00;99.90;;;;;;5058396;28;20377;-86
2021/03/10 09:22:50;;;;;;;;;;;7.00;99.90;;;;;;5058377;28;20015;-85
2021/03/10 09:25:22;;;;;;;;;;;7.00;99.90;;;;;;5041709;28;19908;-85
2021/03/10 09:27:48;;;;;;;;;;;7.10;99.90;;;;;;5115695;28;19954;-86
2021/03/10 09:30:26;;;;;;;;;;;7.10;99.90;;;;;;5113776;28;19911;-84
2021/03/10 09:32:53;;;;;;;;;;;7.20;99.90;;;;;;5115398;28;19907;-86
2021/03/10 09:35:20;;;;;;;;;;;7.30;99.90;;;;;;5115739;28;19918;-85
2021/03/10 09:37:58;;;;;;;;;;;7.40;99.90;;;;;;5081715;28;20002;-85
2021/03/10 09:40:35;;;;;;;;;;;7.40;99.90;;;;;;5103888;28;19920;-86
2021/03/10 09:43:08;;;;;;;;;;;7.50;99.90;;;;;;5113240;28;19908;-86
2021/03/10 09:45:41;;;;;;;;;;;7.50;99.90;;;;;;5118489;28;19907;-86
2021/03/10 09:48:11;;;;;;;;;;;7.50;99.90;;;;;;5124053;28;19924;-85
2021/03/10 09:50:41;;;;;;;;;;;7.50;99.90;;;;;;5105627;28;19940;-86
2021/03/10 09:53:15;;;;;;;;;;;7.60;99.90;;;;;;5117724;28;19929;-85
2021/03/10 09:55:48;;;;;;;;;;;7.60;99.90;;;;;;5119275;28;20003;-85
2021/03/10 09:58:22;;;;;;;;;;;7.60;99.90;;;;;;5116393;28;19908;-87
2021/03/10 10:00:57;;;;;;;;;;;7.70;99.90;;;;;;5113579;28;20368;-86
2021/03/10 10:03:39;;;;;;;;;;;7.70;99.90;;;;;;5112645;28;19916;-86
2021/03/10 10:06:07;;;;;;;;;;;7.80;99.90;;;;;;5114202;28;19928;-86
2021/03/10 10:08:38;;;;;;;;;;;7.90;99.90;;;;;;5117382;28;19908;-86
2021/03/10 10:11:11;;;;;;;;;;;7.90;99.90;;;;;;5116460;28;19909;-86
2021/03/10 10:13:42;;;;;;;;;;;7.90;99.90;;;;;;5113676;28;19923;-86
2021/03/10 10:16:17;;;;;;;;;;;8.00;99.90;;;;;;5054419;28;19991;-87
2021/03/10 10:19:00;;;;;;;;;;;8.00;99.90;;;;;;5054885;28;19994;-86
2021/03/10 10:21:47;;;;;;;;;;;8.00;99.90;;;;;;5034255;28;19922;-86
2021/03/10 10:24:25;;;;;;;;;;;8.10;99.90;;;;;;5034151;28;20345;-85
2021/03/10 10:27:01;;;;;;;;;;;8.00;99.90;;;;;;5031499;28;20007;-88
2021/03/10 10:29:31;;;;;;;;;;;8.00;99.90;;;;;;5031628;28;20011;-87
2021/03/10 10:32:03;;;;;;;;;;;8.00;99.90;;;;;;5033858;28;19943;-86
2021/03/10 10:34:33;;;;;;;;;;;8.00;99.90;;;;;;5032014;28;20051;-86
2021/03/10 10:37:11;;;;;;;;;;;8.10;99.90;;;;;;5033662;28;19909;-85
2021/03/10 10:39:37;;;;;;;;;;;8.30;99.90;;;;;;5031106;28;20024;-86
2021/03/10 10:42:11;;;;;;;;;;;8.30;99.90;;;;;;5030794;28;20429;-87
2021/03/10 10:44:37;;;;;;;;;;;8.40;99.90;;;;;;5030127;28;19925;-87
2021/03/10 10:47:06;;;;;;;;;;;8.50;99.90;;;;;;5062806;28;19921;-86
2021/03/10 10:49:37;;;;;;;;;;;8.70;99.90;;;;;;5076362;28;20007;-86
2021/03/10 10:52:19;;;;;;;;;;;8.70;99.90;;;;;;5082178;28;19915;-86
2021/03/10 10:54:45;;;;;;;;;;;8.80;99.90;;;;;;5114883;28;19911;-87
2021/03/10 10:57:11;;;;;;;;;;;8.80;99.90;;;;;;5114094;28;19984;-87
2021/03/10 10:59:48;;;;;;;;;;;8.90;99.90;;;;;;5109216;28;20007;-86
2021/03/10 11:02:16;;;;;;;;;;;8.90;99.90;;;;;;5116127;28;19912;-86
2021/03/10 11:04:50;;;;;;;;;;;8.90;99.90;;;;;;5053170;28;19909;-86
2021/03/10 11:07:18;;;;;;;;;;;8.90;99.90;;;;;;5032565;28;19925;-86
2021/03/10 11:09:47;;;;;;;;;;;8.90;99.90;;;;;;5027290;28;19967;-86
2021/03/10 11:12:19;;;;;;;;;;;8.90;99.90;;;;;;5016473;28;19909;-86
2021/03/10 11:14:48;;;;;;;;;;;8.90;99.90;;;;;;5011810;28;19913;-86
2021/03/10 11:17:16;;;;;;;;;;;8.90;99.90;;;;;;5016463;28;20358;-88
2021/03/10 11:19:42;;;;;;;;;;;8.90;99.90;;;;;;5016277;28;20293;-87
2021/03/10 11:22:12;;;;;;;;;;;8.90;99.90;;;;;;5009734;28;19913;-87
2021/03/10 11:24:49;;;;;;;;;;;8.80;99.90;;;;;;5010532;28;19955;-87
2021/03/10 11:27:21;;;;;;;;;;;8.90;99.90;;;;;;5011322;28;20412;-86
2021/03/10 11:29:50;;;;;;;;;;;8.90;99.90;;;;;;5018726;28;19909;-88
2021/03/10 11:32:15;;;;;;;;;;;8.90;99.90;;;;;;5015702;28;20382;-87
2021/03/10 11:34:42;;;;;;;;;;;8.90;99.90;;;;;;5042966;28;19936;-88
2021/03/10 11:37:11;;;;;;;;;;;9.00;99.90;;;;;;5057745;28;19954;-84
2021/03/10 11:39:56;;;;;;;;;;;9.00;99.90;;;;;;5057174;28;19909;-86
2021/03/10 11:42:22;;;;;;;;;;;9.10;99.90;;;;;;5037093;28;19920;-87
2021/03/10 11:44:57;;;;;;;;;;;9.10;99.90;;;;;;5008549;28;19914;-86
2021/03/10 11:47:25;;;;;;;;;;;9.10;99.90;;;;;;5008098;28;19971;-87
2021/03/10 11:50:11;;;;;;;;;;;9.20;99.90;;;;;;5013621;28;19917;-87
2021/03/10 11:52:40;;;;;;;;;;;9.20;99.90;;;;;;4996615;28;19992;-87
2021/03/10 11:55:06;;;;;;;;;;;9.30;99.90;;;;;;5007331;28;19957;-86
2021/03/10 11:57:32;;;;;;;;;;;9.30;99.90;;;;;;5010587;28;20010;-88
2021/03/10 12:00:01;;;;;;;;;;;9.40;99.90;;;;;;4997556;28;19968;-87
2021/03/10 12:02:26;;;;;;;;;;;9.40;99.90;;;;;;5013375;28;19996;-87
2021/03/10 12:04:55;;;;;;;;;;;9.50;99.90;;;;;;5013586;28;20262;-87
2021/03/10 12:07:23;;;;;;;;;;;9.50;99.90;;;;;;5025300;28;19928;-87
2021/03/10 12:09:51;;;;;;;;;;;9.60;99.90;;;;;;4993025;28;19941;-86
2021/03/10 12:12:17;;;;;;;;;;;9.60;99.90;;;;;;4993388;28;20394;-87
2021/03/10 12:14:44;;;;;;;;;;;9.60;99.90;;;;;;4996206;28;19910;-86
2021/03/10 12:17:12;;;;;;;;;;;9.70;99.90;;;;;;5015728;28;19909;-87
2021/03/10 12:20:07;;;;;;;;;;;9.70;99.90;;;;;;5016457;28;19908;-87
2021/03/10 12:22:37;;;;;;;;;;;9.80;99.90;;;;;;5072489;28;20410;-87
2021/03/10 12:25:05;;;;;;;;;;;9.80;99.90;;;;;;5046368;28;20403;-87
2021/03/10 12:27:50;;;;;;;;;;;9.80;99.90;;;;;;5056653;28;20000;-88
2021/03/10 12:31:01;;;;;;;;;;;9.90;99.90;;;;;;5032675;28;20046;-88
2021/03/10 12:33:40;;;;;;;;;;;10.00;99.30;;;;;;5000094;28;19932;-88
2021/03/10 12:36:34;;;;;;;;;;;10.10;99.40;;;;;;5012825;28;19932;-87
2021/03/10 12:39:09;;;;;;;;;;;10.20;98.40;;;;;;5019626;28;19916;-89
2021/03/10 12:41:35;;;;;;;;;;;10.40;97.70;;;;;;5055906;28;19951;-87
2021/03/10 12:47:23;;;;;;;;;;;10.60;97.50;;;;;;5099534;28;20010;-86
2021/03/10 12:49:59;;;;;;;;;;;10.80;97.30;;;;;;5036680;28;20002;-88
2021/03/10 12:52:27;;;;;;;;;;;10.90;96.70;;;;;;5019679;28;19909;-88
2021/03/10 12:54:53;;;;;;;;;;;11.00;95.80;;;;;;5034068;28;19909;-88
2021/03/10 12:57:21;;;;;;;;;;;11.20;95.40;;;;;;5036046;28;19909;-87
2021/03/10 12:59:50;;;;;;;;;;;11.30;94.80;;;;;;5036123;28;19917;-87
2021/03/10 13:02:19;;;;;;;;;;;11.40;93.70;;;;;;5001231;28;20321;-88
2021/03/10 13:04:49;;;;;;;;;;;11.40;93.40;;;;;;5019975;28;19913;-87
2021/03/10 13:07:15;;;;;;;;;;;11.50;92.80;;;;;;5033779;28;19921;-87
2021/03/10 13:09:42;;;;;;;;;;;11.50;92.20;;;;;;5033113;28;19909;-88
2021/03/10 13:12:12;;;;;;;;;;;11.50;91.60;;;;;;5035552;28;20349;-87
2021/03/10 13:14:45;;;;;;;;;;;11.50;91.90;;;;;;5035310;28;20396;-86
2021/03/10 13:17:16;;;;;;;;;;;11.40;91.90;;;;;;5035271;28;19913;-86
2021/03/10 13:19:43;;;;;;;;;;;11.30;91.00;;;;;;5040561;28;20001;-86
2021/03/10 13:22:09;;;;;;;;;;;11.20;91.10;;;;;;5108673;28;19973;-87
2021/03/10 13:24:35;;;;;;;;;;;11.10;91.30;;;;;;5092620;28;19912;-88
2021/03/10 13:27:05;;;;;;;;;;;11.10;91.40;;;;;;5035574;28;19909;-88
2021/03/10 13:29:34;;;;;;;;;;;11.00;91.30;;;;;;5036409;28;20266;-87
2021/03/10 13:32:01;;;;;;;;;;;10.90;91.30;;;;;;4992649;28;19910;-87
2021/03/10 13:34:39;;;;;;;;;;;10.90;91.20;;;;;;4976600;28;19910;-87
2021/03/10 13:37:06;;;;;;;;;;;10.80;90.90;;;;;;4957425;29;19910;-87
2021/03/10 13:39:35;;;;;;;;;;;10.80;91.40;;;;;;4957342;29;19911;-88
2021/03/10 13:42:06;;;;;;;;;;;10.80;91.00;;;;;;4954637;29;20333;-87
2021/03/10 13:44:37;;;;;;;;;;;10.80;90.70;;;;;;4955546;29;19961;-87
2021/03/10 13:47:07;;;;;;;;;;;10.80;90.60;;;;;;4957533;29;19910;-86
2021/03/10 13:49:38;;;;;;;;;;;10.80;90.10;;;;;;4954713;28;19949;-87
2021/03/10 13:52:19;;;;;;;;;;;10.70;90.00;;;;;;4955351;29;19911;-88
2021/03/10 13:57:50;;;;;;;;;;;10.60;89.90;;;;;;4919475;29;20457;-87
2021/03/10 14:00:20;;;;;;;;;;;10.60;89.60;;;;;;4934790;29;19966;-88
2021/03/10 14:02:51;;;;;;;;;;;10.60;89.60;;;;;;4940739;29;19925;-87
2021/03/10 14:05:19;;;;;;;;;;;10.70;90.30;;;;;;4995571;28;19914;-87
2021/03/10 14:07:47;;;;;;;;;;;10.70;90.30;;;;;;5043870;28;20393;-88
2021/03/10 14:10:18;;;;;;;;;;;10.60;88.70;;;;;;5096313;28;19908;-87
2021/03/10 14:12:47;;;;;;;;;;;10.60;87.90;;;;;;5095310;28;19908;-87
2021/03/10 14:15:15;;;;;;;;;;;10.60;88.80;;;;;;5096915;28;19915;-86
2021/03/10 14:17:48;;;;;;;;;;;10.70;87.80;;;;;;5096363;28;19916;-87
2021/03/10 14:20:15;;;;;;;;;;;10.60;87.80;;;;;;5096238;28;20258;-87
2021/03/10 14:22:49;;;;;;;;;;;10.60;86.90;;;;;;5095432;28;20032;-88
2021/03/10 14:25:18;;;;;;;;;;;10.60;86.30;;;;;;5094605;28;19912;-87
2021/03/10 14:27:48;;;;;;;;;;;10.70;85.80;;;;;;5093978;28;19954;-87
2021/03/10 14:30:25;;;;;;;;;;;10.70;86.40;;;;;;5095488;28;19908;-87
2021/03/10 14:32:59;;;;;;;;;;;10.70;85.30;;;;;;5034202;28;19909;-87
2021/03/10 14:35:30;;;;;;;;;;;10.70;85.10;;;;;;5032297;28;20287;-88
2021/03/10 14:37:55;;;;;;;;;;;10.70;85.50;;;;;;5014859;28;19913;-87
2021/03/10 14:40:21;;;;;;;;;;;10.70;85.30;;;;;;5016918;28;19931;-88
2021/03/10 14:42:57;;;;;;;;;;;10.70;85.10;;;;;;5032771;28;20402;-87
2021/03/10 14:45:30;;;;;;;;;;;10.70;85.10;;;;;;5032827;28;19964;-86
2021/03/10 14:47:57;;;;;;;;;;;10.70;84.90;;;;;;5035233;28;19958;-86
2021/03/10 14:50:28;;;;;;;;;;;10.70;84.40;;;;;;5017377;28;19913;-89
2021/03/10 14:52:56;;;;;;;;;;;10.60;85.60;;;;;;5015970;28;19916;-86
2021/03/10 14:55:28;;;;;;;;;;;10.70;85.50;;;;;;5032138;28;20396;-88
2021/03/10 14:57:55;;;;;;;;;;;10.60;85.70;;;;;;5017899;28;19915;-86
2021/03/10 15:00:23;;;;;;;;;;;10.70;85.70;;;;;;5030728;28;20413;-86
2021/03/10 15:02:57;;;;;;;;;;;10.70;85.30;;;;;;5040553;28;20371;-87
2021/03/10 15:05:26;;;;;;;;;;;10.60;85.10;;;;;;5098174;28;20322;-87
2021/03/10 15:07:51;;;;;;;;;;;10.60;86.10;;;;;;5115390;28;19911;-87